createdAt,value
2022-09-14T00:01:47.780Z,64.71
2022-09-14T00:04:20.987Z,64.33
2022-09-14T00:06:51.588Z,64.78
2022-09-14T00:09:24.767Z,63.88
2022-09-14T00:11:56.252Z,64.05
2022-09-14T00:14:26.224Z,63.98
2022-09-14T00:16:55.557Z,63.86
2022-09-14T00:19:29.894Z,63.38
2022-09-14T00:22:01.627Z,63.62
2022-09-14T00:24:36.731Z,63.41
2022-09-14T00:27:06.778Z,63.50
2022-09-14T00:29:36.879Z,63.12
2022-09-14T00:32:07.982Z,62.86
2022-09-14T00:34:38.453Z,62.71
2022-09-14T00:37:08.360Z,63.04
2022-09-14T00:39:38.936Z,62.61
2022-09-14T00:42:09.156Z,62.47
2022-09-14T00:44:39.077Z,62.53
2022-09-14T00:47:09.071Z,62.28
2022-09-14T00:49:42.189Z,62.18
2022-09-14T00:52:15.487Z,62.38
2022-09-14T00:54:48.361Z,61.90
2022-09-14T00:57:19.983Z,61.58
2022-09-14T00:59:52.634Z,61.73
2022-09-14T01:02:25.635Z,62.05
2022-09-14T01:04:56.043Z,62.00
2022-09-14T01:07:50.086Z,61.92
2022-09-14T01:10:47.118Z,61.06
2022-09-14T01:13:39.565Z,61.28
2022-09-14T01:16:17.397Z,61.47
2022-09-14T01:18:53.468Z,61.20
2022-09-14T01:21:34.881Z,61.16
2022-09-14T01:24:20.709Z,60.80
2022-09-14T01:27:27.734Z,60.59
2022-09-14T01:30:22.724Z,60.49
2022-09-14T01:33:04.307Z,59.87
2022-09-14T01:35:48.686Z,59.86
2022-09-14T01:38:32.232Z,59.14
2022-09-14T01:41:06.200Z,58.27
2022-09-14T01:43:39.540Z,57.70
2022-09-14T01:46:31.430Z,59.24
2022-09-14T01:49:05.151Z,58.30
2022-09-14T01:51:48.025Z,58.60
2022-09-14T01:54:30.019Z,57.75
2022-09-14T01:57:29.031Z,58.54
2022-09-14T02:00:03.496Z,56.85
2022-09-14T02:02:43.704Z,57.40
2022-09-14T02:05:29.516Z,57.03
2022-09-14T02:07:59.683Z,56.30
2022-09-14T02:10:31.804Z,56.20
2022-09-14T02:13:02.974Z,55.69
2022-09-14T02:15:33.942Z,55.87
2022-09-14T02:18:05.991Z,55.10
2022-09-14T02:20:41.720Z,55.46
2022-09-14T02:23:12.354Z,55.11
2022-09-14T02:25:43.275Z,54.56
2022-09-14T02:28:15.977Z,54.66
2022-09-14T02:31:06.570Z,56.66
2022-09-14T02:33:50.438Z,54.87
2022-09-14T02:36:48.974Z,56.01
2022-09-14T02:39:45.036Z,54.42
2022-09-14T02:42:28.673Z,54.90
2022-09-14T02:45:37.144Z,55.76
2022-09-14T02:48:22.783Z,54.95
2022-09-14T02:51:29.756Z,55.84
2022-09-14T02:54:21.913Z,54.96
2022-09-14T02:56:52.414Z,52.33
2022-09-14T02:59:22.458Z,51.39
2022-09-14T03:01:52.626Z,52.32
2022-09-14T03:04:23.660Z,51.12
2022-09-14T03:06:54.197Z,50.59
2022-09-14T03:09:24.407Z,50.16
2022-09-14T03:11:54.452Z,49.35
2022-09-14T03:14:23.935Z,50.08
2022-09-14T03:16:53.903Z,46.89
2022-09-14T03:19:24.014Z,48.09
2022-09-14T03:21:54.146Z,49.60
2022-09-14T03:24:24.176Z,48.00
2022-09-14T03:26:54.278Z,48.52
2022-09-14T03:29:24.849Z,47.51
2022-09-14T03:31:56.516Z,48.29
2022-09-14T03:34:26.704Z,47.91
2022-09-14T03:36:56.735Z,48.60
2022-09-14T03:39:26.689Z,47.67
2022-09-14T03:41:57.069Z,49.00
2022-09-14T03:44:27.334Z,48.22
2022-09-14T03:46:57.354Z,47.76
2022-09-14T03:49:28.119Z,48.61
2022-09-14T03:52:02.330Z,48.08
2022-09-14T03:54:33.049Z,48.71
2022-09-14T03:57:03.203Z,47.68
2022-09-14T03:59:33.226Z,48.05
2022-09-14T04:02:03.997Z,47.30
2022-09-14T04:04:34.337Z,45.69
2022-09-14T04:07:05.534Z,47.68
2022-09-14T04:09:35.676Z,46.88
2022-09-14T04:12:06.150Z,47.17
2022-09-14T04:14:36.101Z,46.74
2022-09-14T04:17:06.451Z,46.09
2022-09-14T04:19:39.005Z,46.19
2022-09-14T04:22:09.043Z,46.81
2022-09-14T04:24:39.474Z,47.64
2022-09-14T04:27:09.575Z,47.28
2022-09-14T04:29:39.852Z,47.10
2022-09-14T04:32:10.393Z,47.73
2022-09-14T04:34:40.638Z,46.75
2022-09-14T04:37:10.916Z,47.36
2022-09-14T04:39:41.931Z,47.08
2022-09-14T04:42:12.245Z,44.59
2022-09-14T04:44:41.769Z,48.01
2022-09-14T04:47:11.808Z,45.10
2022-09-14T04:49:45.028Z,47.41
2022-09-14T04:52:16.198Z,44.65
2022-09-14T04:54:46.485Z,44.71
2022-09-14T04:57:16.441Z,43.75
2022-09-14T04:59:46.496Z,45.44
2022-09-14T05:02:16.678Z,45.15
2022-09-14T05:04:46.996Z,46.01
2022-09-14T05:07:17.209Z,47.10
2022-09-14T05:09:47.907Z,45.26
2022-09-14T05:12:18.408Z,45.26
2022-09-14T05:14:49.226Z,45.67
2022-09-14T05:17:20.294Z,45.69
2022-09-14T05:19:50.359Z,45.98
2022-09-14T05:22:23.393Z,45.61
2022-09-14T05:24:52.806Z,49.98
2022-09-14T05:27:29.104Z,46.78
2022-09-14T05:30:03.680Z,47.29
2022-09-14T05:32:37.932Z,46.92
2022-09-14T05:35:09.765Z,44.02
2022-09-14T05:37:46.083Z,47.32
2022-09-14T05:40:16.356Z,45.54
2022-09-14T05:42:46.804Z,46.59
2022-09-14T05:45:20.854Z,45.00
2022-09-14T05:47:51.463Z,45.96
2022-09-14T05:50:24.757Z,47.11
2022-09-14T05:52:58.842Z,47.36
2022-09-14T05:55:29.742Z,45.47
2022-09-14T05:58:00.377Z,45.24
2022-09-14T06:00:30.949Z,44.78
2022-09-14T06:03:07.876Z,46.89
2022-09-14T06:05:41.958Z,46.87
2022-09-14T06:08:15.964Z,46.37
2022-09-14T06:10:46.149Z,45.82
2022-09-14T06:13:26.841Z,47.58
2022-09-14T06:16:02.955Z,45.07
2022-09-14T06:18:44.617Z,46.80
2022-09-14T06:21:18.310Z,46.90
2022-09-14T06:23:53.278Z,46.18
2022-09-14T06:26:23.529Z,45.30
2022-09-14T06:28:58.050Z,45.69
2022-09-14T06:31:29.248Z,45.39
2022-09-14T06:34:02.905Z,46.25
2022-09-14T06:36:33.402Z,46.06
2022-09-14T06:39:04.463Z,45.36
2022-09-14T06:41:35.712Z,44.64
2022-09-14T06:44:05.890Z,45.09
2022-09-14T06:46:37.275Z,44.93
2022-09-14T06:49:12.266Z,46.35
2022-09-14T06:51:44.881Z,45.00
2022-09-14T06:54:16.737Z,46.33
2022-09-14T06:56:49.249Z,46.04
2022-09-14T06:59:20.903Z,46.36
2022-09-14T07:01:51.467Z,45.85
2022-09-14T07:04:28.485Z,45.49
2022-09-14T07:07:05.161Z,46.74
2022-09-14T07:09:38.972Z,45.64
2022-09-14T07:12:11.007Z,45.72
2022-09-14T07:14:41.127Z,45.74
2022-09-14T07:17:12.308Z,45.56
2022-09-14T07:19:42.562Z,46.07
2022-09-14T07:22:12.903Z,44.86
2022-09-14T07:24:43.087Z,45.22
2022-09-14T07:27:12.566Z,45.81
2022-09-14T07:29:45.872Z,45.40
2022-09-14T07:32:15.985Z,46.26
2022-09-14T07:34:50.172Z,46.49
2022-09-14T07:37:20.714Z,45.96
2022-09-14T07:39:58.544Z,48.07
2022-09-14T07:42:40.538Z,47.56
2022-09-14T07:45:11.208Z,45.49
2022-09-14T07:47:42.250Z,45.41
2022-09-14T07:50:13.047Z,45.51
2022-09-14T07:52:43.239Z,44.96
2022-09-14T07:55:13.836Z,45.38
2022-09-14T07:57:55.610Z,45.10
2022-09-14T08:00:26.931Z,44.50
2022-09-14T08:02:59.218Z,45.30
2022-09-14T08:05:29.161Z,44.48
2022-09-14T08:07:59.247Z,44.48
2022-09-14T08:10:29.485Z,45.13
2022-09-14T08:12:59.144Z,44.55
2022-09-14T08:15:29.683Z,44.71
2022-09-14T08:17:59.945Z,44.02
2022-09-14T08:20:30.926Z,44.13
2022-09-14T08:23:01.498Z,44.04
2022-09-14T08:25:35.006Z,44.12
2022-09-14T08:28:04.933Z,43.65
2022-09-14T08:30:34.962Z,44.82
2022-09-14T08:33:06.046Z,44.31
2022-09-14T08:35:57.033Z,44.18
2022-09-14T08:38:26.667Z,44.47
2022-09-14T08:41:00.590Z,47.59
2022-09-14T08:43:35.240Z,45.00
2022-09-14T08:46:10.996Z,45.41
2022-09-14T08:48:50.897Z,46.09
2022-09-14T08:51:24.981Z,44.26
2022-09-14T08:53:58.376Z,43.69
2022-09-14T08:56:47.312Z,46.93
2022-09-14T08:59:45.328Z,46.39
2022-09-14T09:03:06.249Z,46.50
2022-09-14T09:05:51.984Z,44.30
2022-09-14T09:08:47.981Z,46.38
2022-09-14T09:11:28.514Z,46.86
2022-09-14T09:13:59.184Z,45.90
2022-09-14T09:16:30.482Z,45.83
2022-09-14T09:19:10.027Z,47.25
2022-09-14T09:21:47.128Z,47.05
2022-09-14T09:24:36.910Z,46.76
2022-09-14T09:27:15.432Z,46.83
2022-09-14T09:29:46.004Z,46.49
2022-09-14T09:32:20.747Z,46.99
2022-09-14T09:35:22.472Z,47.64
2022-09-14T09:38:17.466Z,47.42
2022-09-14T09:41:24.285Z,47.53
2022-09-14T09:44:11.759Z,47.50
2022-09-14T09:47:01.291Z,48.01
2022-09-14T09:49:41.407Z,46.83
2022-09-14T09:52:19.040Z,47.40
2022-09-14T09:54:55.040Z,47.31
2022-09-14T09:57:33.036Z,46.78
2022-09-14T10:00:21.313Z,48.11
2022-09-14T10:02:56.279Z,46.96
2022-09-14T10:05:30.389Z,47.61
2022-09-14T10:08:01.256Z,46.78
2022-09-14T10:10:37.291Z,47.89
2022-09-14T10:13:18.634Z,47.26
2022-09-14T10:15:51.180Z,47.62
2022-09-14T10:18:22.527Z,47.68
2022-09-14T10:20:55.299Z,48.74
2022-09-14T10:23:28.606Z,47.73
2022-09-14T10:26:17.049Z,48.50
2022-09-14T10:28:49.686Z,47.84
2022-09-14T10:31:19.753Z,47.74
2022-09-14T10:33:53.571Z,47.83
2022-09-14T10:36:33.877Z,48.42
2022-09-14T10:39:32.516Z,48.20
2022-09-14T10:42:20.669Z,47.62
2022-09-14T10:45:30.924Z,48.58
2022-09-14T10:48:31.567Z,48.38
2022-09-14T10:51:14.168Z,48.78
2022-09-14T10:53:51.432Z,48.65
2022-09-14T10:56:55.115Z,49.21
2022-09-14T10:59:34.029Z,48.81
2022-09-14T11:02:30.809Z,49.26
2022-09-14T11:05:30.524Z,49.56
2022-09-14T11:08:16.078Z,49.60
2022-09-14T11:11:10.676Z,50.17
2022-09-14T11:13:48.514Z,49.85
2022-09-14T11:16:45.601Z,50.07
2022-09-14T11:19:37.215Z,50.16
2022-09-14T11:22:24.151Z,49.96
2022-09-14T11:25:12.699Z,50.24
2022-09-14T11:27:46.442Z,50.58
2022-09-14T11:30:22.275Z,50.12
2022-09-14T11:32:57.717Z,50.16
2022-09-14T11:35:47.321Z,50.91
2022-09-14T11:38:23.660Z,50.17
2022-09-14T11:41:15.966Z,50.34
2022-09-14T11:43:56.357Z,50.51
2022-09-14T11:46:33.448Z,50.63
2022-09-14T11:49:35.789Z,50.38
2022-09-14T11:52:25.044Z,50.51
2022-09-14T11:54:56.921Z,50.58
2022-09-14T11:57:32.540Z,50.51
2022-09-14T12:00:08.696Z,51.04
2022-09-14T12:02:39.593Z,50.16
2022-09-14T12:05:09.664Z,50.60
2022-09-14T12:07:48.291Z,50.57
2022-09-14T12:10:22.207Z,50.40
2022-09-14T12:13:11.924Z,50.63
2022-09-14T12:15:42.990Z,51.39
2022-09-14T12:18:13.089Z,51.89
2022-09-14T12:21:01.277Z,51.81
2022-09-14T12:23:43.398Z,51.97
2022-09-14T12:26:14.147Z,52.02
2022-09-14T12:28:53.588Z,51.39
2022-09-14T12:31:34.044Z,51.78
2022-09-14T12:34:24.951Z,52.14
2022-09-14T12:36:55.101Z,52.22
2022-09-14T12:39:28.277Z,52.45
2022-09-14T12:41:58.237Z,52.52
2022-09-14T12:44:40.389Z,51.66
2022-09-14T12:47:32.396Z,51.86
2022-09-14T12:50:12.837Z,52.07
2022-09-14T12:53:31.556Z,52.21
2022-09-14T12:56:06.795Z,52.69
2022-09-14T12:58:45.780Z,53.04
2022-09-14T13:01:37.637Z,52.18
2022-09-14T13:04:17.164Z,52.08
2022-09-14T13:06:50.840Z,52.69
2022-09-14T13:09:24.335Z,53.06
2022-09-14T13:12:11.141Z,52.59
2022-09-14T13:14:57.600Z,52.51
2022-09-14T13:17:28.325Z,53.66
2022-09-14T13:20:02.414Z,52.93
2022-09-14T13:22:36.364Z,53.45
2022-09-14T13:25:07.302Z,53.10
2022-09-14T13:27:41.585Z,53.30
2022-09-14T13:30:23.799Z,53.15
2022-09-14T13:32:58.119Z,52.90
2022-09-14T13:36:02.443Z,52.54
2022-09-14T13:38:37.925Z,53.18
2022-09-14T13:41:21.292Z,52.67
2022-09-14T13:43:55.634Z,53.01
2022-09-14T13:46:29.192Z,53.76
2022-09-14T13:49:01.174Z,54.09
2022-09-14T13:51:32.002Z,53.97
2022-09-14T13:54:30.163Z,53.11
2022-09-14T13:57:20.569Z,53.11
2022-09-14T14:00:22.879Z,53.06
2022-09-14T14:02:56.203Z,53.91
2022-09-14T14:05:32.703Z,53.85
2022-09-14T14:08:06.194Z,53.65
2022-09-14T14:10:47.880Z,54.11
2022-09-14T14:13:30.866Z,53.39
2022-09-14T14:16:19.238Z,53.41
2022-09-14T14:18:58.226Z,53.57
2022-09-14T14:21:34.330Z,54.14
2022-09-14T14:24:29.740Z,53.48
2022-09-14T14:27:00.858Z,53.95
2022-09-14T14:29:32.493Z,54.70
2022-09-14T14:32:03.098Z,54.22
2022-09-14T14:34:37.408Z,53.82
2022-09-14T14:37:07.700Z,54.89
2022-09-14T14:39:40.400Z,54.41
2022-09-14T14:42:12.599Z,53.73
2022-09-14T14:44:43.611Z,54.13
2022-09-14T14:47:16.354Z,54.51
2022-09-14T14:49:45.960Z,54.17
2022-09-14T14:52:16.750Z,53.35
2022-09-14T14:54:47.167Z,53.86
2022-09-14T14:57:18.969Z,52.82
2022-09-14T14:59:54.328Z,53.13
2022-09-14T15:02:26.340Z,53.65
2022-09-14T15:04:56.717Z,53.47
2022-09-14T15:07:27.610Z,53.47
2022-09-14T15:10:00.758Z,53.44
2022-09-14T15:12:31.497Z,53.30
2022-09-14T15:15:02.382Z,53.06
2022-09-14T15:17:33.171Z,52.76
2022-09-14T15:20:03.797Z,53.05
2022-09-14T15:22:34.452Z,52.77
2022-09-14T15:25:06.219Z,53.23
2022-09-14T15:27:36.893Z,52.42
2022-09-14T15:30:10.962Z,52.42
2022-09-14T15:32:42.353Z,53.58
2022-09-14T15:35:15.327Z,53.68
2022-09-14T15:37:45.893Z,53.18
2022-09-14T15:40:16.644Z,53.86
2022-09-14T15:42:47.335Z,53.23
2022-09-14T15:45:19.374Z,53.50
2022-09-14T15:47:53.089Z,53.53
2022-09-14T15:50:24.716Z,53.79
2022-09-14T15:52:59.145Z,53.92
2022-09-14T15:55:32.995Z,53.82
2022-09-14T15:58:04.027Z,53.76
2022-09-14T16:00:35.653Z,53.76
2022-09-14T16:03:06.995Z,53.15
2022-09-14T16:05:41.915Z,53.06
2022-09-14T16:08:12.525Z,53.45
2022-09-14T16:10:42.852Z,53.53
2022-09-14T16:13:13.251Z,53.55
2022-09-14T16:15:44.484Z,53.82
2022-09-14T16:18:15.098Z,54.39
2022-09-14T16:20:45.969Z,54.13
2022-09-14T16:23:16.569Z,54.27
2022-09-14T16:25:46.865Z,54.52
2022-09-14T16:28:17.354Z,53.76
2022-09-14T16:30:49.627Z,53.45
2022-09-14T16:33:20.604Z,53.24
2022-09-14T16:35:51.286Z,53.63
2022-09-14T16:38:23.017Z,53.31
2022-09-14T16:41:01.485Z,53.00
2022-09-14T16:43:33.878Z,53.57
2022-09-14T16:46:13.950Z,53.75
2022-09-14T16:48:51.320Z,54.04
2022-09-14T16:51:25.286Z,54.14
2022-09-14T16:53:56.330Z,55.18
2022-09-14T16:56:32.636Z,54.15
2022-09-14T16:59:05.069Z,54.56
2022-09-14T17:01:38.934Z,54.78
2022-09-14T17:04:16.217Z,54.80
2022-09-14T17:06:47.706Z,55.10
2022-09-14T17:09:21.773Z,54.66
2022-09-14T17:11:52.773Z,55.06
2022-09-14T17:14:27.964Z,54.94
2022-09-14T17:16:59.087Z,54.96
2022-09-14T17:19:30.304Z,55.52
2022-09-14T17:22:00.394Z,55.64
2022-09-14T17:24:31.748Z,55.86
2022-09-14T17:27:01.745Z,55.96
2022-09-14T17:29:36.938Z,55.58
2022-09-14T17:32:08.480Z,55.23
2022-09-14T17:34:41.552Z,55.67
2022-09-14T17:37:11.667Z,55.58
2022-09-14T17:39:41.642Z,55.39
2022-09-14T17:42:11.599Z,54.99
2022-09-14T17:44:42.220Z,54.96
2022-09-14T17:47:12.723Z,54.76
2022-09-14T17:49:42.837Z,55.21
2022-09-14T17:52:13.676Z,55.21
2022-09-14T17:54:44.470Z,55.42
2022-09-14T17:57:18.083Z,55.77
2022-09-14T17:59:48.887Z,55.63
2022-09-14T18:02:19.811Z,54.76
2022-09-14T18:04:50.607Z,55.38
2022-09-14T18:07:20.870Z,55.64
2022-09-14T18:10:11.389Z,56.22
2022-09-14T18:12:41.757Z,56.05
2022-09-14T18:15:15.238Z,56.35
2022-09-14T18:17:47.619Z,56.05
2022-09-14T18:20:18.407Z,55.93
2022-09-14T18:22:48.541Z,56.34
2022-09-14T18:25:18.730Z,56.32
2022-09-14T18:27:48.682Z,56.15
2022-09-14T18:30:19.068Z,56.24
2022-09-14T18:32:49.562Z,56.70
2022-09-14T18:35:19.789Z,55.96
2022-09-14T18:37:49.779Z,56.26
2022-09-14T18:40:20.400Z,56.90
2022-09-14T18:43:00.043Z,56.57
2022-09-14T18:45:32.160Z,56.40
2022-09-14T18:48:02.304Z,56.78
2022-09-14T18:50:32.501Z,56.38
2022-09-14T18:53:02.440Z,56.56
2022-09-14T18:55:35.131Z,57.11
2022-09-14T18:58:06.368Z,56.89
2022-09-14T19:00:36.267Z,55.57
2022-09-14T19:03:06.321Z,56.89
2022-09-14T19:05:40.386Z,57.18
2022-09-14T19:08:14.875Z,56.70
2022-09-14T19:10:45.045Z,57.23
2022-09-14T19:13:15.162Z,57.00
2022-09-14T19:15:46.047Z,56.74
2022-09-14T19:18:16.690Z,56.74
2022-09-14T19:21:05.803Z,56.78
2022-09-14T19:23:38.188Z,56.88
2022-09-14T19:26:24.912Z,55.76
2022-09-14T19:28:56.277Z,56.49
2022-09-14T19:31:26.899Z,56.98
2022-09-14T19:34:01.709Z,56.89
2022-09-14T19:36:35.040Z,56.99
2022-09-14T19:39:06.729Z,57.08
2022-09-14T19:41:37.366Z,57.11
2022-09-14T19:44:09.034Z,57.13
2022-09-14T19:46:40.863Z,57.48
2022-09-14T19:49:23.402Z,56.55
2022-09-14T19:51:55.107Z,57.30
2022-09-14T19:54:25.525Z,57.28
2022-09-14T19:56:55.639Z,57.18
2022-09-14T19:59:25.744Z,57.56
2022-09-14T20:01:56.035Z,57.51
2022-09-14T20:04:27.195Z,57.52
2022-09-14T20:06:58.013Z,57.61
2022-09-14T20:09:28.063Z,57.50
2022-09-14T20:11:57.601Z,57.77
2022-09-14T20:14:28.188Z,58.65
2022-09-14T20:17:00.566Z,58.21
2022-09-14T20:19:32.405Z,58.29
2022-09-14T20:22:02.342Z,58.38
2022-09-14T20:24:33.709Z,58.53
2022-09-14T20:27:05.181Z,58.68
2022-09-14T20:29:36.731Z,58.14
2022-09-14T20:32:08.221Z,58.13
2022-09-14T20:34:38.692Z,58.51
2022-09-14T20:37:08.653Z,58.88
2022-09-14T20:39:39.524Z,59.09
2022-09-14T20:42:09.697Z,60.00
2022-09-14T20:44:39.688Z,59.88
2022-09-14T20:47:09.754Z,59.38
2022-09-14T20:49:40.385Z,59.59
2022-09-14T20:52:10.739Z,59.16
2022-09-14T20:54:40.686Z,60.12
2022-09-14T20:57:11.229Z,60.71
2022-09-14T20:59:41.205Z,60.13
2022-09-14T21:02:12.302Z,59.48
2022-09-14T21:04:42.255Z,59.33
2022-09-14T21:07:13.814Z,59.23
2022-09-14T21:09:43.886Z,59.21
2022-09-14T21:12:16.319Z,60.30
2022-09-14T21:14:46.625Z,59.44
2022-09-14T21:17:18.890Z,59.15
2022-09-14T21:19:48.868Z,59.83
2022-09-14T21:22:19.586Z,60.28
2022-09-14T21:24:49.497Z,59.20
2022-09-14T21:27:19.459Z,59.43
2022-09-14T21:29:51.234Z,58.80
2022-09-14T21:32:21.401Z,59.22
2022-09-14T21:34:51.747Z,59.08
2022-09-14T21:37:21.844Z,59.32
2022-09-14T21:39:51.913Z,59.27
2022-09-14T21:42:22.444Z,60.19
2022-09-14T21:44:52.521Z,60.43
2022-09-14T21:47:22.694Z,59.96
2022-09-14T21:49:52.672Z,59.77
2022-09-14T21:52:22.670Z,59.37
2022-09-14T21:54:52.571Z,60.32
2022-09-14T21:57:22.631Z,60.58
2022-09-14T21:59:52.637Z,60.01
2022-09-14T22:02:23.143Z,60.31
2022-09-14T22:04:53.175Z,60.64
2022-09-14T22:07:23.197Z,60.42
2022-09-14T22:09:54.047Z,60.55
2022-09-14T22:12:23.609Z,60.87
2022-09-14T22:14:53.586Z,60.52
2022-09-14T22:17:23.647Z,61.04
2022-09-14T22:19:56.210Z,60.92
2022-09-14T22:22:27.063Z,60.84
2022-09-14T22:24:58.726Z,60.99
2022-09-14T22:27:29.772Z,60.88
2022-09-14T22:30:00.347Z,61.85
2022-09-14T22:32:30.688Z,61.10
2022-09-14T22:35:00.647Z,61.02
2022-09-14T22:37:30.710Z,61.57
2022-09-14T22:40:00.713Z,61.18
2022-09-14T22:42:32.981Z,61.03
2022-09-14T22:45:03.073Z,60.82
2022-09-14T22:47:33.006Z,61.08
2022-09-14T22:50:03.097Z,60.89
2022-09-14T22:52:33.216Z,60.97
2022-09-14T22:55:03.150Z,61.13
2022-09-14T22:57:33.219Z,60.63
2022-09-14T23:00:03.253Z,61.03
2022-09-14T23:02:33.383Z,60.96
2022-09-14T23:05:05.054Z,61.03
2022-09-14T23:07:35.636Z,60.73
2022-09-14T23:10:06.147Z,60.66
2022-09-14T23:12:35.761Z,60.72
2022-09-14T23:15:06.270Z,60.34
2022-09-14T23:17:36.774Z,61.01
2022-09-14T23:20:07.298Z,60.97
2022-09-14T23:22:38.194Z,60.79
2022-09-14T23:25:09.087Z,60.53
2022-09-14T23:27:39.469Z,61.13
2022-09-14T23:30:09.907Z,61.01
2022-09-14T23:32:43.606Z,60.54
2022-09-14T23:35:14.172Z,60.33
2022-09-14T23:37:44.453Z,60.82
2022-09-14T23:40:14.801Z,60.47
2022-09-14T23:42:44.932Z,60.41
2022-09-14T23:45:16.641Z,60.31
2022-09-14T23:47:47.522Z,60.57
2022-09-14T23:50:19.219Z,60.25
2022-09-14T23:52:49.431Z,60.35
2022-09-14T23:55:19.453Z,60.11
2022-09-14T23:57:49.423Z,60.30
